createdAt,value
2023-07-31T00:02:22.410Z,74.55
2023-07-31T00:04:50.143Z,72.25
2023-07-31T00:07:17.552Z,73.45
2023-07-31T00:09:44.927Z,76.15
2023-07-31T00:12:12.640Z,77.02
2023-07-31T00:14:40.029Z,77.63
2023-07-31T00:17:07.431Z,76.29
2023-07-31T00:19:35.140Z,79.46
2023-07-31T00:22:02.552Z,78.17
2023-07-31T00:24:29.948Z,74.61
2023-07-31T00:26:57.758Z,73.73
2023-07-31T00:29:25.178Z,76.68
2023-07-31T00:31:52.602Z,78.38
2023-07-31T00:34:20.277Z,76.81
2023-07-31T00:36:47.689Z,77.49
2023-07-31T00:39:18.032Z,75.33
2023-07-31T00:41:46.141Z,77.51
2023-07-31T00:44:13.533Z,78.91
2023-07-31T00:46:41.191Z,79.11
2023-07-31T00:49:09.075Z,78.39
2023-07-31T00:51:36.434Z,78.42
2023-07-31T00:54:04.159Z,80.31
2023-07-31T00:56:31.903Z,79.04
2023-07-31T00:58:59.300Z,76.52
2023-07-31T01:01:26.777Z,74.13
2023-07-31T01:03:57.420Z,79.87
2023-07-31T01:06:49.377Z,77.83
2023-07-31T01:09:40.265Z,78.00
2023-07-31T01:12:08.107Z,77.19
2023-07-31T01:14:36.190Z,78.30
2023-07-31T01:17:03.638Z,79.73
2023-07-31T01:19:31.712Z,77.70
2023-07-31T01:22:24.403Z,81.17
2023-07-31T01:25:06.554Z,80.48
2023-07-31T01:27:37.156Z,80.32
2023-07-31T01:30:15.308Z,78.83
2023-07-31T01:32:44.027Z,81.65
2023-07-31T01:35:11.477Z,78.22
2023-07-31T01:37:38.894Z,77.96
2023-07-31T01:40:07.333Z,76.00
2023-07-31T01:42:34.753Z,74.93
2023-07-31T01:45:02.188Z,75.54
2023-07-31T01:47:29.935Z,72.86
2023-07-31T01:49:57.336Z,70.73
2023-07-31T01:52:24.999Z,71.65
2023-07-31T01:54:53.093Z,73.26
2023-07-31T01:57:20.464Z,71.54
2023-07-31T01:59:47.900Z,71.15
2023-07-31T02:02:15.614Z,70.76
2023-07-31T02:04:43.321Z,70.41
2023-07-31T02:07:10.684Z,74.63
2023-07-31T02:09:38.072Z,78.34
2023-07-31T02:12:06.165Z,76.29
2023-07-31T02:14:33.512Z,76.62
2023-07-31T02:17:00.921Z,75.46
2023-07-31T02:19:28.620Z,75.49
2023-07-31T02:21:56.053Z,72.18
2023-07-31T02:24:24.806Z,72.83
2023-07-31T02:26:52.481Z,72.70
2023-07-31T02:29:19.884Z,72.41
2023-07-31T02:31:47.297Z,71.90
2023-07-31T02:34:15.024Z,69.83
2023-07-31T02:36:43.052Z,71.40
2023-07-31T02:39:10.433Z,70.66
2023-07-31T02:41:38.146Z,69.01
2023-07-31T02:44:05.582Z,69.11
2023-07-31T02:46:32.972Z,71.48
2023-07-31T02:49:00.706Z,71.83
2023-07-31T02:51:28.254Z,69.70
2023-07-31T02:53:55.703Z,75.95
2023-07-31T02:56:23.451Z,71.68
2023-07-31T02:58:50.870Z,71.71
2023-07-31T03:01:18.369Z,72.17
2023-07-31T03:03:46.133Z,70.93
2023-07-31T03:06:13.529Z,70.14
2023-07-31T03:08:40.898Z,69.88
2023-07-31T03:11:08.572Z,69.50
2023-07-31T03:13:35.939Z,68.00
2023-07-31T03:16:03.462Z,69.11
2023-07-31T03:18:31.316Z,72.07
2023-07-31T03:20:58.716Z,72.63
2023-07-31T03:23:26.858Z,70.03
2023-07-31T03:26:01.504Z,72.48
2023-07-31T03:28:29.285Z,73.89
2023-07-31T03:30:57.133Z,73.37
2023-07-31T03:33:24.529Z,69.59
2023-07-31T03:35:52.092Z,70.37
2023-07-31T03:38:19.965Z,69.23
2023-07-31T03:40:47.388Z,71.17
2023-07-31T03:43:14.806Z,69.92
2023-07-31T03:45:43.833Z,67.52
2023-07-31T03:48:12.383Z,68.86
2023-07-31T03:50:39.814Z,69.50
2023-07-31T03:53:07.520Z,68.28
2023-07-31T03:55:34.928Z,70.28
2023-07-31T03:58:02.353Z,68.24
2023-07-31T04:00:30.034Z,68.03
2023-07-31T04:02:57.734Z,66.66
2023-07-31T04:05:25.271Z,67.56
2023-07-31T04:07:52.678Z,68.61
2023-07-31T04:10:20.402Z,69.32
2023-07-31T04:12:47.833Z,69.71
2023-07-31T04:15:15.251Z,68.70
2023-07-31T04:17:43.230Z,66.88
2023-07-31T04:20:11.219Z,66.43
2023-07-31T04:22:38.656Z,66.05
2023-07-31T04:25:06.722Z,64.39
2023-07-31T04:27:34.125Z,63.51
2023-07-31T04:30:01.578Z,65.13
2023-07-31T04:32:30.788Z,64.48
2023-07-31T04:34:58.213Z,63.60
2023-07-31T04:37:25.586Z,62.81
2023-07-31T04:39:53.241Z,63.94
2023-07-31T04:42:20.645Z,64.74
2023-07-31T04:44:48.082Z,63.38
2023-07-31T04:47:15.758Z,62.31
2023-07-31T04:49:43.191Z,61.99
2023-07-31T04:52:10.562Z,61.88
2023-07-31T04:54:38.229Z,62.00
2023-07-31T04:57:07.664Z,60.45
2023-07-31T04:59:35.210Z,60.51
2023-07-31T05:02:02.937Z,60.24
2023-07-31T05:04:30.365Z,58.67
2023-07-31T05:06:57.828Z,60.52
2023-07-31T05:09:25.508Z,56.26
2023-07-31T05:11:52.870Z,54.71
2023-07-31T05:14:21.375Z,54.70
2023-07-31T05:16:49.110Z,50.54
2023-07-31T05:19:16.556Z,49.85
2023-07-31T05:21:43.993Z,46.68
2023-07-31T05:24:11.741Z,51.87
2023-07-31T05:26:39.535Z,51.68
2023-07-31T05:29:07.040Z,50.89
2023-07-31T05:31:34.692Z,51.46
2023-07-31T05:34:02.103Z,49.33
2023-07-31T05:36:29.500Z,47.40
2023-07-31T05:38:57.165Z,44.77
2023-07-31T05:41:24.625Z,41.96
2023-07-31T05:43:52.675Z,47.14
2023-07-31T05:46:20.423Z,47.29
2023-07-31T05:48:47.856Z,47.91
2023-07-31T05:51:15.262Z,52.38
2023-07-31T05:53:42.996Z,50.85
2023-07-31T05:56:10.359Z,46.99
2023-07-31T05:58:37.760Z,44.45
2023-07-31T06:01:05.506Z,44.28
2023-07-31T06:03:33.269Z,42.46
2023-07-31T06:06:00.985Z,39.88
2023-07-31T06:08:28.396Z,41.62
2023-07-31T06:10:56.164Z,42.27
2023-07-31T06:13:23.528Z,45.28
2023-07-31T06:15:51.021Z,44.85
2023-07-31T06:18:18.721Z,38.86
2023-07-31T06:20:46.150Z,42.49
2023-07-31T06:23:13.568Z,40.16
2023-07-31T06:25:41.235Z,39.87
2023-07-31T06:28:08.633Z,42.57
2023-07-31T06:30:36.074Z,43.39
2023-07-31T06:33:03.998Z,45.12
2023-07-31T06:35:31.535Z,45.54
2023-07-31T06:37:58.879Z,44.66
2023-07-31T06:40:26.636Z,45.69
2023-07-31T06:42:54.049Z,47.21
2023-07-31T06:45:21.506Z,47.29
2023-07-31T06:47:49.235Z,51.03
2023-07-31T06:50:16.734Z,51.56
2023-07-31T06:52:44.317Z,50.33
2023-07-31T06:55:21.715Z,51.29
2023-07-31T06:57:49.464Z,50.42
2023-07-31T07:00:17.790Z,47.61
2023-07-31T07:02:45.313Z,43.73
2023-07-31T07:05:12.848Z,41.85
2023-07-31T07:07:40.558Z,42.54
2023-07-31T07:10:08.433Z,44.07
2023-07-31T07:12:36.624Z,41.84
2023-07-31T07:15:04.550Z,38.34
2023-07-31T07:17:33.905Z,36.37
2023-07-31T07:20:01.543Z,36.38
2023-07-31T07:22:30.424Z,34.54
2023-07-31T07:24:57.904Z,36.43
2023-07-31T07:27:25.340Z,40.87
2023-07-31T07:29:53.795Z,40.85
2023-07-31T07:32:21.507Z,40.04
2023-07-31T07:34:49.512Z,36.63
2023-07-31T07:37:17.356Z,39.87
2023-07-31T07:39:45.014Z,41.44
2023-07-31T07:42:12.748Z,45.41
2023-07-31T07:44:40.485Z,47.67
2023-07-31T07:47:08.102Z,48.10
2023-07-31T07:49:36.072Z,45.51
2023-07-31T07:52:04.216Z,45.65
2023-07-31T07:54:31.985Z,40.14
2023-07-31T07:56:59.363Z,38.95
2023-07-31T07:59:27.036Z,41.38
2023-07-31T08:01:54.589Z,37.69
2023-07-31T08:04:22.284Z,37.09
2023-07-31T08:06:49.770Z,36.93
2023-07-31T08:09:17.194Z,31.37
2023-07-31T08:11:44.844Z,36.97
2023-07-31T08:14:12.260Z,35.00
2023-07-31T08:16:39.977Z,36.54
2023-07-31T08:19:07.910Z,34.76
2023-07-31T08:21:35.588Z,34.68
2023-07-31T08:24:03.026Z,36.80
2023-07-31T08:26:30.720Z,33.74
2023-07-31T08:28:58.758Z,33.37
2023-07-31T08:31:26.173Z,31.65
2023-07-31T08:33:53.842Z,33.90
2023-07-31T08:36:21.268Z,30.79
2023-07-31T08:38:48.638Z,31.17
2023-07-31T08:41:17.951Z,30.65
2023-07-31T08:43:48.685Z,33.39
2023-07-31T08:46:16.471Z,34.89
2023-07-31T08:48:44.064Z,33.79
2023-07-31T08:51:11.475Z,31.39
2023-07-31T08:53:39.115Z,32.88
2023-07-31T08:56:06.520Z,31.35
2023-07-31T08:58:34.112Z,35.27
2023-07-31T09:01:05.620Z,31.20
2023-07-31T09:03:35.079Z,33.50
2023-07-31T09:06:03.873Z,35.28
2023-07-31T09:08:31.759Z,34.33
2023-07-31T09:11:04.340Z,34.58
2023-07-31T09:13:32.449Z,33.82
2023-07-31T09:16:00.189Z,35.40
2023-07-31T09:18:27.741Z,33.12
2023-07-31T09:21:08.454Z,31.10
2023-07-31T09:23:45.897Z,35.60
2023-07-31T09:26:33.343Z,33.09
2023-07-31T09:29:09.312Z,36.08
2023-07-31T09:31:41.949Z,36.01
2023-07-31T09:34:09.596Z,33.93
2023-07-31T09:36:47.300Z,30.80
2023-07-31T09:39:15.407Z,30.63
2023-07-31T09:41:48.294Z,32.38
2023-07-31T09:44:15.664Z,28.93
2023-07-31T09:46:44.151Z,31.76
2023-07-31T09:49:12.731Z,30.01
2023-07-31T09:51:40.911Z,33.49
2023-07-31T09:54:15.339Z,31.12
2023-07-31T09:56:47.347Z,30.58
2023-07-31T09:59:21.868Z,32.34
2023-07-31T10:01:51.289Z,29.83
2023-07-31T10:04:21.847Z,30.27
2023-07-31T10:06:49.252Z,33.44
2023-07-31T10:09:16.746Z,31.94
2023-07-31T10:11:57.512Z,29.27
2023-07-31T10:14:25.044Z,29.93
2023-07-31T10:16:52.691Z,29.51
2023-07-31T10:19:20.134Z,31.30
2023-07-31T10:21:47.689Z,28.20
2023-07-31T10:24:15.445Z,28.53
2023-07-31T10:26:42.986Z,30.80
2023-07-31T10:29:10.447Z,29.15
2023-07-31T10:31:38.084Z,29.28
2023-07-31T10:34:05.944Z,31.14
2023-07-31T10:36:33.340Z,30.48
2023-07-31T10:39:01.033Z,28.60
2023-07-31T10:41:32.255Z,31.59
2023-07-31T10:44:03.036Z,30.94
2023-07-31T10:46:30.751Z,30.87
2023-07-31T10:49:02.318Z,32.36
2023-07-31T10:51:36.305Z,31.94
2023-07-31T10:54:13.780Z,29.43
2023-07-31T10:56:41.665Z,31.99
2023-07-31T10:59:13.652Z,34.21
2023-07-31T11:01:54.212Z,35.16
2023-07-31T11:04:28.493Z,35.71
2023-07-31T11:06:59.902Z,35.51
2023-07-31T11:09:31.869Z,37.45
2023-07-31T11:12:00.006Z,36.08
2023-07-31T11:14:27.729Z,36.67
2023-07-31T11:16:55.194Z,36.14
2023-07-31T11:19:24.696Z,35.00
2023-07-31T11:21:54.000Z,34.69
2023-07-31T11:24:21.404Z,35.38
2023-07-31T11:26:52.763Z,35.18
2023-07-31T11:29:21.319Z,35.64
2023-07-31T11:31:49.297Z,35.18
2023-07-31T11:34:18.329Z,34.69
2023-07-31T11:36:56.574Z,34.97
2023-07-31T11:39:24.001Z,35.43
2023-07-31T11:41:51.709Z,35.36
2023-07-31T11:44:27.376Z,35.64
2023-07-31T11:46:59.066Z,35.78
2023-07-31T11:49:26.898Z,35.68
2023-07-31T11:51:54.297Z,36.04
2023-07-31T11:54:22.053Z,35.54
2023-07-31T11:56:50.752Z,34.22
2023-07-31T11:59:18.211Z,33.60
2023-07-31T12:01:45.938Z,34.25
2023-07-31T12:04:13.787Z,34.62
2023-07-31T12:06:41.574Z,34.16
2023-07-31T12:09:09.152Z,34.80
2023-07-31T12:11:46.527Z,34.69
2023-07-31T12:14:27.165Z,34.82
2023-07-31T12:19:30.859Z,34.37
2023-07-31T12:22:00.066Z,35.25
2023-07-31T12:24:28.024Z,35.08
2023-07-31T12:26:56.347Z,34.85
2023-07-31T12:29:24.082Z,35.50
2023-07-31T12:31:51.644Z,33.88
2023-07-31T12:34:19.755Z,35.26
2023-07-31T12:36:47.502Z,36.18
2023-07-31T12:39:15.486Z,35.57
2023-07-31T12:41:42.882Z,35.44
2023-07-31T12:44:12.422Z,35.46
2023-07-31T12:46:40.110Z,35.22
2023-07-31T12:49:07.844Z,34.92
2023-07-31T12:51:35.497Z,35.06
2023-07-31T12:54:02.928Z,35.64
2023-07-31T12:56:30.339Z,36.03
2023-07-31T12:58:57.984Z,35.83
2023-07-31T13:01:25.415Z,36.16
2023-07-31T13:03:53.025Z,34.96
2023-07-31T13:06:20.896Z,34.96
2023-07-31T13:08:48.384Z,34.42
2023-07-31T13:11:15.849Z,34.36
2023-07-31T13:13:43.601Z,34.30
2023-07-31T13:16:11.098Z,34.98
2023-07-31T13:18:38.503Z,34.13
2023-07-31T13:21:06.200Z,35.03
2023-07-31T13:23:33.572Z,33.67
2023-07-31T13:26:00.949Z,33.28
2023-07-31T13:28:28.633Z,32.30
2023-07-31T13:30:56.167Z,32.89
2023-07-31T13:33:36.190Z,33.45
2023-07-31T13:36:05.190Z,34.38
2023-07-31T13:38:32.641Z,34.15
2023-07-31T13:41:00.294Z,34.93
2023-07-31T13:43:27.959Z,34.69
2023-07-31T13:45:55.357Z,33.68
2023-07-31T13:48:22.750Z,33.55
2023-07-31T13:50:50.382Z,33.06
2023-07-31T13:53:17.774Z,32.91
2023-07-31T13:55:46.788Z,32.62
2023-07-31T13:58:14.475Z,32.49
2023-07-31T14:00:41.881Z,34.44
2023-07-31T14:03:09.604Z,33.53
2023-07-31T14:05:37.024Z,33.21
2023-07-31T14:08:04.610Z,34.58
2023-07-31T14:10:32.228Z,34.52
2023-07-31T14:12:59.575Z,33.13
2023-07-31T14:15:27.624Z,33.40
2023-07-31T14:17:58.333Z,33.61
2023-07-31T14:20:27.388Z,33.50
2023-07-31T14:22:55.066Z,33.77
2023-07-31T14:25:22.555Z,33.76
2023-07-31T14:27:49.977Z,33.71
2023-07-31T14:30:18.208Z,33.18
2023-07-31T14:32:45.736Z,33.88
2023-07-31T14:35:13.126Z,33.88
2023-07-31T14:37:41.618Z,33.23
2023-07-31T14:40:09.589Z,32.68
2023-07-31T14:42:37.139Z,32.40
2023-07-31T14:45:05.644Z,32.82
2023-07-31T14:47:33.275Z,32.53
2023-07-31T14:50:00.952Z,32.30
2023-07-31T14:52:28.629Z,31.99
2023-07-31T14:54:56.021Z,32.74
2023-07-31T14:57:25.397Z,32.90
2023-07-31T14:59:54.418Z,32.45
2023-07-31T15:02:22.126Z,32.98
2023-07-31T15:04:49.503Z,33.51
2023-07-31T15:07:17.184Z,33.87
2023-07-31T15:09:44.565Z,33.88
2023-07-31T15:12:11.978Z,33.88
2023-07-31T15:14:39.681Z,33.77
2023-07-31T15:17:07.152Z,34.02
2023-07-31T15:19:36.138Z,34.39
2023-07-31T15:22:04.710Z,34.84
2023-07-31T15:24:32.339Z,35.18
2023-07-31T15:26:59.963Z,35.02
2023-07-31T15:29:27.663Z,35.00
2023-07-31T15:31:55.062Z,34.23
2023-07-31T15:34:22.464Z,33.69
2023-07-31T15:36:50.135Z,33.97
2023-07-31T15:39:17.529Z,33.31
2023-07-31T15:41:45.022Z,32.69
2023-07-31T15:44:12.810Z,33.40
2023-07-31T15:46:40.390Z,33.13
2023-07-31T15:49:08.026Z,33.92
2023-07-31T15:51:35.714Z,33.29
2023-07-31T15:54:03.182Z,33.61
2023-07-31T15:56:30.535Z,33.99
2023-07-31T15:58:59.628Z,34.06
2023-07-31T16:01:27.190Z,34.56
2023-07-31T16:03:54.968Z,34.12
2023-07-31T16:06:22.385Z,34.70
2023-07-31T16:08:49.942Z,34.77
2023-07-31T16:11:17.569Z,33.98
2023-07-31T16:13:44.997Z,34.83
2023-07-31T16:16:12.406Z,34.06
2023-07-31T16:18:40.097Z,34.74
2023-07-31T16:21:07.529Z,32.76
2023-07-31T16:23:34.941Z,34.63
2023-07-31T16:26:02.651Z,33.79
2023-07-31T16:28:30.095Z,33.05
2023-07-31T16:30:57.485Z,34.45
2023-07-31T16:33:25.305Z,33.88
2023-07-31T16:35:52.725Z,34.19
2023-07-31T16:38:20.125Z,34.23
2023-07-31T16:40:48.384Z,34.78
2023-07-31T16:43:15.851Z,35.20
2023-07-31T16:45:43.344Z,33.99
2023-07-31T16:48:11.126Z,35.48
2023-07-31T16:50:38.571Z,34.51
2023-07-31T16:53:05.929Z,35.11
2023-07-31T16:55:35.222Z,35.78
2023-07-31T16:58:02.591Z,34.73
2023-07-31T17:00:30.691Z,34.91
2023-07-31T17:02:59.048Z,36.84
2023-07-31T17:05:26.602Z,36.79
2023-07-31T17:07:54.024Z,36.62
2023-07-31T17:10:21.683Z,36.55
2023-07-31T17:12:49.069Z,35.86
2023-07-31T17:15:16.528Z,37.26
2023-07-31T17:17:44.231Z,36.98
2023-07-31T17:20:12.829Z,37.42
2023-07-31T17:22:48.599Z,37.03
2023-07-31T17:25:20.119Z,38.40
2023-07-31T17:27:50.048Z,38.09
2023-07-31T17:30:19.094Z,36.00
2023-07-31T17:32:46.540Z,36.56
2023-07-31T17:35:13.992Z,37.71
2023-07-31T17:37:41.659Z,36.76
2023-07-31T17:40:09.553Z,36.38
2023-07-31T17:42:36.926Z,36.22
2023-07-31T17:45:04.905Z,36.76
2023-07-31T17:47:32.360Z,36.93
2023-07-31T17:49:59.824Z,36.36
2023-07-31T17:52:27.484Z,36.74
2023-07-31T17:54:55.383Z,36.51
2023-07-31T17:57:22.887Z,36.36
2023-07-31T17:59:52.091Z,37.16
2023-07-31T18:02:20.011Z,36.92
2023-07-31T18:04:47.801Z,37.56
2023-07-31T18:07:15.192Z,36.42
2023-07-31T18:09:42.616Z,37.59
2023-07-31T18:12:10.312Z,37.15
2023-07-31T18:14:38.929Z,37.27
2023-07-31T18:17:06.827Z,38.19
2023-07-31T18:19:34.629Z,38.26
2023-07-31T18:22:02.110Z,39.68
2023-07-31T18:24:29.521Z,39.35
2023-07-31T18:26:57.802Z,39.08
2023-07-31T18:29:25.628Z,40.05
2023-07-31T18:31:53.056Z,40.26
2023-07-31T18:34:20.723Z,40.63
2023-07-31T18:36:48.112Z,40.94
2023-07-31T18:39:15.508Z,41.22
2023-07-31T18:41:43.187Z,40.83
2023-07-31T18:44:10.718Z,42.11
2023-07-31T18:46:38.531Z,41.79
2023-07-31T18:49:06.540Z,41.17
2023-07-31T18:51:38.509Z,41.75
2023-07-31T18:54:06.500Z,42.19
2023-07-31T18:56:34.115Z,42.34
2023-07-31T18:59:02.174Z,42.63
2023-07-31T19:01:29.841Z,43.30
2023-07-31T19:03:59.395Z,43.43
2023-07-31T19:06:26.885Z,43.42
2023-07-31T19:08:58.306Z,43.08
2023-07-31T19:11:32.512Z,41.89
2023-07-31T19:14:01.299Z,42.15
2023-07-31T19:16:28.905Z,42.38
2023-07-31T19:18:56.438Z,42.32
2023-07-31T19:21:24.157Z,42.35
2023-07-31T19:23:51.659Z,42.69
2023-07-31T19:26:19.320Z,42.72
2023-07-31T19:28:46.958Z,42.87
2023-07-31T19:31:14.369Z,42.66
2023-07-31T19:33:41.793Z,42.99
2023-07-31T19:36:09.444Z,43.29
2023-07-31T19:38:37.050Z,43.88
2023-07-31T19:41:05.054Z,44.38
2023-07-31T19:43:32.669Z,44.55
2023-07-31T19:46:00.082Z,44.30
2023-07-31T19:48:27.581Z,43.93
2023-07-31T19:50:55.256Z,44.60
2023-07-31T19:53:22.635Z,43.90
2023-07-31T19:55:50.370Z,43.78
2023-07-31T19:58:18.082Z,42.79
2023-07-31T20:00:45.430Z,43.95
2023-07-31T20:03:13.106Z,44.13
2023-07-31T20:05:42.307Z,44.93
2023-07-31T20:08:09.716Z,44.49
2023-07-31T20:10:37.413Z,44.51
2023-07-31T20:13:04.786Z,44.72
2023-07-31T20:15:32.202Z,44.93
2023-07-31T20:17:59.903Z,45.28
2023-07-31T20:20:27.316Z,45.43
2023-07-31T20:22:54.760Z,45.48
2023-07-31T20:25:22.438Z,44.35
2023-07-31T20:27:49.819Z,44.24
2023-07-31T20:30:17.244Z,44.92
2023-07-31T20:32:45.684Z,45.20
2023-07-31T20:35:13.139Z,45.68
2023-07-31T20:37:40.535Z,45.25
2023-07-31T20:40:08.872Z,45.29
2023-07-31T20:42:36.316Z,45.44
2023-07-31T20:45:03.953Z,45.64
2023-07-31T20:47:31.923Z,47.26
2023-07-31T20:49:59.313Z,47.76
2023-07-31T20:52:26.713Z,48.20
2023-07-31T20:54:54.348Z,47.82
2023-07-31T20:57:21.763Z,48.80
2023-07-31T20:59:49.204Z,47.97
2023-07-31T21:02:16.934Z,48.20
2023-07-31T21:04:44.433Z,48.04
2023-07-31T21:07:16.025Z,48.99
2023-07-31T21:09:48.540Z,48.54
2023-07-31T21:12:16.069Z,48.73
2023-07-31T21:14:43.899Z,49.48
2023-07-31T21:17:11.594Z,48.42
2023-07-31T21:19:38.997Z,48.86
2023-07-31T21:22:06.730Z,49.15
2023-07-31T21:24:34.122Z,48.57
2023-07-31T21:27:01.492Z,49.22
2023-07-31T21:29:29.162Z,50.36
2023-07-31T21:31:57.866Z,50.54
2023-07-31T21:34:25.508Z,51.21
2023-07-31T21:36:53.179Z,49.52
2023-07-31T21:39:21.263Z,50.37
2023-07-31T21:41:48.658Z,50.92
2023-07-31T21:44:16.302Z,51.25
2023-07-31T21:46:43.970Z,51.20
2023-07-31T21:49:11.580Z,51.01
2023-07-31T21:51:39.254Z,51.66
2023-07-31T21:54:06.700Z,50.58
2023-07-31T21:56:34.071Z,52.21
2023-07-31T21:59:01.765Z,51.67
2023-07-31T22:01:29.128Z,50.58
2023-07-31T22:03:56.810Z,50.43
2023-07-31T22:06:24.194Z,50.17
2023-07-31T22:08:51.613Z,50.76
2023-07-31T22:11:21.467Z,50.21
2023-07-31T22:13:49.030Z,50.52
2023-07-31T22:16:16.474Z,51.17
2023-07-31T22:18:44.278Z,51.84
2023-07-31T22:21:11.714Z,51.54
2023-07-31T22:23:39.119Z,50.93
2023-07-31T22:26:06.801Z,50.37
2023-07-31T22:28:34.210Z,50.74
2023-07-31T22:31:01.610Z,50.45
2023-07-31T22:33:29.231Z,50.30
2023-07-31T22:35:56.643Z,52.10
2023-07-31T22:38:24.026Z,51.00
2023-07-31T22:40:51.660Z,51.12
2023-07-31T22:43:19.099Z,51.46
2023-07-31T22:45:47.088Z,50.77
2023-07-31T22:48:14.789Z,50.27
2023-07-31T22:50:42.282Z,50.57
2023-07-31T22:53:09.733Z,49.55
2023-07-31T22:55:37.420Z,49.58
2023-07-31T22:58:04.857Z,49.34
2023-07-31T23:00:32.332Z,49.38
2023-07-31T23:03:00.073Z,49.85
2023-07-31T23:05:27.550Z,50.16
2023-07-31T23:07:54.988Z,50.35
2023-07-31T23:10:22.624Z,50.10
2023-07-31T23:12:49.985Z,50.37
2023-07-31T23:15:17.397Z,50.92
2023-07-31T23:17:45.143Z,51.39
2023-07-31T23:20:12.562Z,51.05
2023-07-31T23:22:39.982Z,50.84
2023-07-31T23:25:08.025Z,50.67
2023-07-31T23:27:35.415Z,51.00
2023-07-31T23:30:02.989Z,51.55
2023-07-31T23:32:30.693Z,51.37
2023-07-31T23:34:58.138Z,52.29
2023-07-31T23:37:25.550Z,51.78
2023-07-31T23:39:53.218Z,51.39
2023-07-31T23:42:20.602Z,51.21
2023-07-31T23:44:56.757Z,51.23
2023-07-31T23:47:32.591Z,51.04
2023-07-31T23:50:00.194Z,51.35
2023-07-31T23:52:27.593Z,51.70
2023-07-31T23:54:55.297Z,52.01
2023-07-31T23:57:22.730Z,51.58
2023-07-31T23:59:50.140Z,51.36
